Time;durP1;ratioP1;P1;durP2;ratioP2;P2;SDS_P1;SDS_P2;PMS_P1;PMS_P2;Temp;Humidity;BMP_temperature;BMP_pressure;BME280_temperature;BME280_humidity;BME280_pressure;Samples;Min_cycle;Max_cycle;Signal;HPM_P1;HPM_P2
2022/07/08 00:01:19;;;;;;;9.80;1.50;;;14.30;99.90;;;;;;5052033;28;20080;-56
2022/07/08 00:03:45;;;;;;;9.93;1.80;;;14.30;99.90;;;;;;5052033;28;20056;-56
2022/07/08 00:06:10;;;;;;;8.20;1.75;;;14.30;99.90;;;;;;5052380;28;20049;-56
2022/07/08 00:08:36;;;;;;;12.30;2.58;;;14.20;99.90;;;;;;5034324;28;20040;-56
2022/07/08 00:11:02;;;;;;;10.35;1.55;;;14.10;99.90;;;;;;5052117;28;20512;-56
2022/07/08 00:13:28;;;;;;;11.35;2.15;;;14.20;99.90;;;;;;5052199;28;20037;-57
2022/07/08 00:15:54;;;;;;;11.02;1.60;;;14.20;99.90;;;;;;5051946;28;20048;-57
2022/07/08 00:18:20;;;;;;;8.82;1.55;;;14.20;99.90;;;;;;5052263;28;20517;-56
2022/07/08 00:20:45;;;;;;;9.50;1.88;;;14.10;99.90;;;;;;5051849;28;20076;-56
2022/07/08 00:23:11;;;;;;;10.23;1.52;;;14.10;99.90;;;;;;5052143;28;20118;-56
2022/07/08 00:25:37;;;;;;;11.30;1.67;;;14.00;99.90;;;;;;5052335;28;20441;-56
2022/07/08 00:28:03;;;;;;;8.05;1.38;;;14.00;99.90;;;;;;5051886;28;20033;-55
2022/07/08 00:30:28;;;;;;;12.43;1.70;;;14.00;99.90;;;;;;5052173;28;20099;-55
2022/07/08 00:32:54;;;;;;;9.73;2.00;;;14.00;99.90;;;;;;5052212;28;20384;-56
2022/07/08 00:35:20;;;;;;;7.55;1.55;;;14.00;99.90;;;;;;5051763;28;20049;-56
2022/07/08 00:37:45;;;;;;;14.52;2.20;;;14.00;99.90;;;;;;5050461;28;20036;-56
2022/07/08 00:40:11;;;;;;;9.85;1.52;;;14.00;99.90;;;;;;5052024;28;20033;-56
2022/07/08 00:42:37;;;;;;;12.18;2.65;;;14.00;99.90;;;;;;5052091;28;20119;-55
2022/07/08 00:45:03;;;;;;;7.40;1.38;;;13.90;99.90;;;;;;5067307;28;20120;-55
2022/07/08 00:47:29;;;;;;;14.35;2.53;;;13.90;99.90;;;;;;5052035;28;20445;-56
2022/07/08 00:49:55;;;;;;;9.68;1.73;;;13.90;99.90;;;;;;5051737;28;20036;-55
2022/07/08 00:52:21;;;;;;;9.43;2.67;;;13.90;99.90;;;;;;5051684;28;20048;-55
2022/07/08 00:54:47;;;;;;;11.10;2.40;;;14.00;99.90;;;;;;5033754;28;20656;-56
2022/07/08 00:57:14;;;;;;;11.27;1.60;;;13.80;99.90;;;;;;5034126;28;20049;-55
2022/07/08 00:59:41;;;;;;;11.35;1.90;;;13.90;99.90;;;;;;5055700;28;20080;-55
2022/07/08 01:02:07;;;;;;;10.07;2.05;;;13.80;99.90;;;;;;5055554;28;20033;-56
2022/07/08 01:04:34;;;;;;;9.73;1.48;;;13.60;99.90;;;;;;5055245;28;20060;-55
2022/07/08 01:07:00;;;;;;;12.25;2.00;;;13.60;99.90;;;;;;5055527;28;20048;-54
2022/07/08 01:09:26;;;;;;;12.50;1.95;;;13.60;99.90;;;;;;5055455;28;20086;-56
2022/07/08 01:11:52;;;;;;;11.75;2.05;;;13.40;99.90;;;;;;5055490;28;20102;-57
2022/07/08 01:14:18;;;;;;;13.25;1.80;;;13.40;99.90;;;;;;5055374;28;20080;-55
2022/07/08 01:16:44;;;;;;;13.98;1.85;;;13.40;99.90;;;;;;5055315;28;20036;-54
2022/07/08 01:19:10;;;;;;;11.40;2.15;;;13.50;99.90;;;;;;5055255;28;20452;-55
2022/07/08 01:21:35;;;;;;;13.95;2.28;;;13.50;99.90;;;;;;5054896;28;20037;-55
2022/07/08 01:24:01;;;;;;;8.05;1.67;;;13.40;99.90;;;;;;5054906;28;20528;-56
2022/07/08 01:26:28;;;;;;;6.22;1.55;;;13.40;99.90;;;;;;5054901;28;20044;-56
2022/07/08 01:28:55;;;;;;;12.60;2.83;;;13.30;99.90;;;;;;5054870;28;20041;-56
2022/07/08 01:31:21;;;;;;;8.88;1.88;;;13.40;99.90;;;;;;5053491;28;20052;-55
2022/07/08 01:33:46;;;;;;;8.65;2.15;;;13.40;99.90;;;;;;5055027;28;20435;-56
2022/07/08 01:36:12;;;;;;;13.13;2.05;;;13.40;99.90;;;;;;5055078;28;20127;-56
2022/07/08 01:38:38;;;;;;;12.25;2.17;;;13.50;99.90;;;;;;5055050;28;20396;-56
2022/07/08 01:41:04;;;;;;;8.20;1.80;;;13.40;99.90;;;;;;5054765;28;20045;-56
2022/07/08 01:43:30;;;;;;;11.65;2.67;;;13.30;99.90;;;;;;5054711;28;20036;-54
2022/07/08 01:45:56;;;;;;;9.10;1.63;;;13.20;99.90;;;;;;5054872;28;20500;-56
2022/07/08 01:48:21;;;;;;;9.63;2.85;;;13.00;99.90;;;;;;5054765;28;20651;-56
2022/07/08 01:50:47;;;;;;;13.50;2.50;;;13.00;99.90;;;;;;5054376;28;20036;-56
2022/07/08 01:53:13;;;;;;;8.93;2.20;;;13.20;99.90;;;;;;5054397;28;20099;-56
2022/07/08 01:55:39;;;;;;;9.45;2.08;;;13.20;99.90;;;;;;5054662;28;20048;-57
2022/07/08 01:58:05;;;;;;;15.50;2.55;;;13.30;99.90;;;;;;5036564;28;20037;-56
2022/07/08 02:00:30;;;;;;;10.18;1.90;;;13.30;99.90;;;;;;5054529;28;20428;-56
2022/07/08 02:02:56;;;;;;;9.85;2.08;;;13.30;99.90;;;;;;5054371;28;20414;-55
2022/07/08 02:05:22;;;;;;;10.48;1.63;;;13.20;99.90;;;;;;5036368;28;20544;-56
2022/07/08 02:07:48;;;;;;;10.95;2.30;;;13.20;99.90;;;;;;5054110;28;20048;-55
2022/07/08 02:10:13;;;;;;;7.57;1.90;;;13.20;99.90;;;;;;5036524;28;20041;-56
2022/07/08 02:12:39;;;;;;;7.75;1.73;;;13.10;99.90;;;;;;5054353;28;20128;-55
2022/07/08 02:15:07;;;;;;;8.98;2.20;;;13.00;99.90;;;;;;5036161;28;20124;-56
2022/07/08 02:17:38;;;;;;;9.32;2.20;;;12.80;99.90;;;;;;5036122;28;20053;-55
2022/07/08 02:20:06;;;;;;;12.27;2.65;;;12.80;99.90;;;;;;5054014;28;20044;-57
2022/07/08 02:22:33;;;;;;;9.77;2.00;;;12.70;99.90;;;;;;5054167;28;20037;-56
2022/07/08 02:24:58;;;;;;;11.10;2.72;;;12.70;99.90;;;;;;5054193;28;20036;-56
2022/07/08 02:27:24;;;;;;;11.20;2.40;;;12.70;99.90;;;;;;5069358;28;20039;-56
2022/07/08 02:29:50;;;;;;;9.63;2.30;;;12.60;99.90;;;;;;5054014;28;20049;-56
2022/07/08 02:32:16;;;;;;;12.30;2.70;;;12.70;99.90;;;;;;5053811;28;20069;-55
2022/07/08 02:34:42;;;;;;;11.02;2.47;;;12.70;99.90;;;;;;5054008;28;20033;-56
2022/07/08 02:37:07;;;;;;;6.75;2.03;;;12.80;99.90;;;;;;5052338;28;20080;-55
2022/07/08 02:39:33;;;;;;;12.10;2.30;;;12.70;99.90;;;;;;5053662;28;20041;-55
2022/07/08 02:41:59;;;;;;;12.05;2.85;;;12.70;99.90;;;;;;5053677;28;20385;-56
2022/07/08 02:44:24;;;;;;;7.20;1.90;;;12.80;99.90;;;;;;5053761;28;20033;-57
2022/07/08 02:46:50;;;;;;;10.05;2.45;;;12.80;99.90;;;;;;5052146;28;20040;-54
2022/07/08 02:49:15;;;;;;;13.68;2.03;;;12.70;99.90;;;;;;5053672;28;20125;-55
2022/07/08 02:51:41;;;;;;;12.20;2.53;;;12.60;99.90;;;;;;5046769;28;20144;-56
2022/07/08 02:54:08;;;;;;;9.05;2.33;;;12.60;99.90;;;;;;5053468;28;20052;-55
2022/07/08 02:56:34;;;;;;;9.80;2.60;;;12.70;99.90;;;;;;5053512;28;20045;-54
2022/07/08 02:59:01;;;;;;;10.77;2.55;;;12.60;99.90;;;;;;5053237;28;20041;-56
2022/07/08 03:01:27;;;;;;;14.98;2.83;;;12.70;99.90;;;;;;5052926;28;20060;-55
2022/07/08 03:03:53;;;;;;;10.88;2.72;;;12.50;99.90;;;;;;5052926;28;20049;-56
2022/07/08 03:06:18;;;;;;;11.32;2.78;;;12.50;99.90;;;;;;5053268;28;20044;-56
2022/07/08 03:08:44;;;;;;;10.85;2.88;;;12.40;99.90;;;;;;5053156;28;20435;-55
2022/07/08 03:11:10;;;;;;;9.57;2.50;;;12.40;99.90;;;;;;5034967;28;20459;-56
2022/07/08 03:13:36;;;;;;;10.02;3.25;;;12.40;99.90;;;;;;5053043;28;20037;-56
2022/07/08 03:16:06;;;;;;;9.95;3.03;;;12.40;99.90;;;;;;5035095;28;20390;-56
2022/07/08 03:18:32;;;;;;;11.43;2.58;;;12.50;99.90;;;;;;5053063;28;20037;-55
2022/07/08 03:20:58;;;;;;;12.32;2.92;;;12.60;99.90;;;;;;5037406;28;20037;-55
2022/07/08 03:23:24;;;;;;;12.82;2.53;;;12.60;99.90;;;;;;5053122;28;20489;-54
2022/07/08 03:25:50;;;;;;;7.82;2.63;;;12.60;99.90;;;;;;5052912;28;20052;-56
2022/07/08 03:28:15;;;;;;;10.15;2.63;;;12.60;99.90;;;;;;5052922;28;20477;-55
2022/07/08 03:30:41;;;;;;;12.80;2.40;;;12.50;99.90;;;;;;5053150;28;20048;-56
2022/07/08 03:33:07;;;;;;;14.57;2.97;;;12.50;99.90;;;;;;5051330;28;20056;-56
2022/07/08 03:35:32;;;;;;;11.63;3.15;;;12.50;99.90;;;;;;5067905;28;20069;-55
2022/07/08 03:37:58;;;;;;;9.23;2.72;;;12.50;99.90;;;;;;5052031;28;20571;-57
2022/07/08 03:43:08;;;;;;;11.75;3.03;;;12.60;99.90;;;;;;5052550;28;20129;-55
2022/07/08 03:45:34;;;;;;;8.82;2.25;;;12.60;99.90;;;;;;5052738;28;20112;-56
2022/07/08 03:48:00;;;;;;;9.93;2.13;;;12.60;99.90;;;;;;5068133;28;20037;-55
2022/07/08 03:50:27;;;;;;;9.93;2.15;;;12.50;99.90;;;;;;5052251;28;20049;-56
2022/07/08 03:52:52;;;;;;;12.10;2.20;;;12.50;99.90;;;;;;5052250;28;20080;-55
2022/07/08 03:55:21;;;;;;;14.93;2.78;;;12.70;99.90;;;;;;5052449;28;20110;-56
2022/07/08 03:57:47;;;;;;;11.90;2.90;;;12.60;99.90;;;;;;5034908;28;20049;-56
2022/07/08 04:00:14;;;;;;;11.48;2.30;;;12.70;99.90;;;;;;5052006;28;20044;-56
2022/07/08 04:02:39;;;;;;;11.50;2.35;;;12.70;99.90;;;;;;5052277;28;20072;-56
2022/07/08 04:05:05;;;;;;;15.60;3.03;;;12.70;99.90;;;;;;5052314;28;20083;-56
2022/07/08 04:07:32;;;;;;;13.25;2.72;;;12.70;99.90;;;;;;5052369;28;20503;-57
2022/07/08 04:09:58;;;;;;;10.25;2.67;;;12.70;99.90;;;;;;5052326;28;20123;-56
2022/07/08 04:12:24;;;;;;;14.98;2.50;;;12.80;99.90;;;;;;5052196;28;20120;-57
2022/07/08 04:14:49;;;;;;;18.65;3.58;;;12.60;99.90;;;;;;5052298;28;20076;-56
2022/07/08 04:17:15;;;;;;;11.18;2.70;;;12.80;99.90;;;;;;5051992;28;20076;-56
2022/07/08 04:19:41;;;;;;;11.63;2.95;;;12.70;99.90;;;;;;5052250;28;20049;-56
2022/07/08 04:22:06;;;;;;;14.63;3.25;;;12.90;99.90;;;;;;5052141;28;20852;-56
2022/07/08 04:24:32;;;;;;;8.43;2.38;;;13.00;99.90;;;;;;5050723;28;20040;-56
2022/07/08 04:26:58;;;;;;;13.75;2.72;;;13.10;99.90;;;;;;5051941;28;20045;-56
2022/07/08 04:29:23;;;;;;;13.25;2.83;;;13.20;99.90;;;;;;5051901;28;20037;-55
2022/07/08 04:31:49;;;;;;;13.68;3.08;;;13.20;99.90;;;;;;5050449;28;20068;-56
2022/07/08 04:34:15;;;;;;;13.80;2.53;;;13.30;99.90;;;;;;5055712;28;20041;-57
2022/07/08 04:36:40;;;;;;;14.27;2.47;;;13.30;99.90;;;;;;5054803;28;20048;-55
2022/07/08 04:39:06;;;;;;;11.93;2.65;;;13.40;99.90;;;;;;5071457;28;20052;-55
2022/07/08 04:41:32;;;;;;;10.80;3.08;;;13.40;99.90;;;;;;5055802;28;20045;-57
2022/07/08 04:43:57;;;;;;;13.48;2.63;;;13.50;99.90;;;;;;5054633;28;20045;-56
2022/07/08 04:46:23;;;;;;;15.38;3.47;;;13.50;99.90;;;;;;5055474;28;20389;-57
2022/07/08 04:48:48;;;;;;;9.73;2.22;;;13.60;99.90;;;;;;5055594;28;20041;-57
2022/07/08 04:51:14;;;;;;;10.80;2.72;;;13.50;99.90;;;;;;5055763;28;20040;-55
2022/07/08 04:53:40;;;;;;;9.10;2.80;;;13.40;99.90;;;;;;5055488;28;20496;-57
2022/07/08 04:56:06;;;;;;;14.50;3.08;;;13.60;99.90;;;;;;5055830;28;20091;-56
2022/07/08 04:58:31;;;;;;;10.05;2.70;;;13.60;99.90;;;;;;5055803;28;20211;-55
2022/07/08 05:00:58;;;;;;;15.75;2.80;;;13.70;99.90;;;;;;5055487;28;20555;-56
2022/07/08 05:03:23;;;;;;;12.68;2.70;;;13.90;99.90;;;;;;5033790;28;20108;-56
2022/07/08 05:05:49;;;;;;;16.23;3.50;;;14.00;99.90;;;;;;5034150;28;20445;-57
2022/07/08 05:08:15;;;;;;;11.52;2.50;;;14.10;99.90;;;;;;5035347;28;20068;-57
2022/07/08 05:10:40;;;;;;;11.45;2.63;;;14.10;99.90;;;;;;5035527;28;20045;-57
2022/07/08 05:13:07;;;;;;;12.70;2.75;;;14.30;99.90;;;;;;5035548;28;20041;-57
2022/07/08 05:15:33;;;;;;;13.82;3.47;;;14.20;99.90;;;;;;5034260;28;20117;-57
2022/07/08 05:17:59;;;;;;;17.80;3.28;;;14.30;99.90;;;;;;5033966;28;20068;-56
2022/07/08 05:20:24;;;;;;;12.82;3.00;;;14.30;99.90;;;;;;5035149;28;20461;-57
2022/07/08 05:22:50;;;;;;;12.02;3.10;;;14.40;99.90;;;;;;5035192;28;20102;-57
2022/07/08 05:25:16;;;;;;;13.32;2.92;;;14.50;99.90;;;;;;5035144;28;20033;-57
2022/07/08 05:27:42;;;;;;;14.13;2.70;;;14.50;99.90;;;;;;5035327;28;20541;-55
2022/07/08 05:30:09;;;;;;;10.80;2.67;;;14.50;99.90;;;;;;5035293;28;20515;-56
2022/07/08 05:32:36;;;;;;;9.70;2.97;;;14.60;99.90;;;;;;5035225;28;20075;-57
2022/07/08 05:35:03;;;;;;;14.00;3.10;;;14.70;99.90;;;;;;5035191;28;20045;-57
2022/07/08 05:37:29;;;;;;;11.88;2.60;;;14.70;99.90;;;;;;5035061;28;20049;-57
2022/07/08 05:39:55;;;;;;;12.25;2.72;;;14.70;99.90;;;;;;5034311;28;20486;-57
2022/07/08 05:42:21;;;;;;;14.20;2.92;;;14.80;99.90;;;;;;5034878;28;20040;-57
2022/07/08 05:44:47;;;;;;;17.27;2.67;;;14.90;99.90;;;;;;5032839;28;20477;-56
2022/07/08 05:47:13;;;;;;;14.93;2.72;;;14.90;99.90;;;;;;5033848;28;20371;-56
2022/07/08 05:49:40;;;;;;;11.30;2.53;;;15.00;99.90;;;;;;5035004;28;20455;-56
2022/07/08 05:52:06;;;;;;;12.55;2.80;;;15.10;99.90;;;;;;5034756;28;20068;-55
2022/07/08 05:54:32;;;;;;;10.80;2.70;;;15.10;99.90;;;;;;5034536;28;20482;-57
2022/07/08 05:56:59;;;;;;;13.65;3.42;;;15.30;99.90;;;;;;5033277;28;20039;-57
2022/07/08 05:59:26;;;;;;;10.10;2.45;;;15.30;99.90;;;;;;5033842;28;20393;-56
2022/07/08 06:01:51;;;;;;;11.02;2.47;;;15.40;99.90;;;;;;5033786;28;20050;-56
2022/07/08 06:04:17;;;;;;;9.90;2.63;;;15.40;99.90;;;;;;5047894;28;20056;-56
2022/07/08 06:06:43;;;;;;;10.07;2.85;;;15.50;99.90;;;;;;5053396;28;20094;-56
2022/07/08 06:09:09;;;;;;;12.35;3.33;;;15.50;99.90;;;;;;5035444;28;20045;-56
2022/07/08 06:11:34;;;;;;;16.30;3.30;;;15.50;99.90;;;;;;5053148;28;20036;-57
2022/07/08 06:14:00;;;;;;;11.02;2.70;;;15.60;99.90;;;;;;5018715;28;20552;-57
2022/07/08 06:16:26;;;;;;;13.77;2.72;;;15.60;99.90;;;;;;5053196;28;20044;-58
2022/07/08 06:18:51;;;;;;;11.15;2.95;;;15.60;99.90;;;;;;5053116;28;20060;-54
2022/07/08 06:21:17;;;;;;;15.77;3.45;;;15.60;99.90;;;;;;5052739;28;20724;-57
2022/07/08 06:23:43;;;;;;;11.20;2.75;;;15.70;99.90;;;;;;5052688;28;20421;-57
2022/07/08 06:26:10;;;;;;;14.60;3.90;;;15.80;99.90;;;;;;5052948;28;20037;-58
2022/07/08 06:28:37;;;;;;;11.27;2.40;;;15.90;99.90;;;;;;5051715;28;20087;-57
2022/07/08 06:31:02;;;;;;;15.88;3.67;;;15.90;99.90;;;;;;5053149;28;20102;-57
2022/07/08 06:33:28;;;;;;;11.05;2.35;;;16.10;99.90;;;;;;5053227;28;20060;-57
2022/07/08 06:35:54;;;;;;;9.90;2.35;;;16.20;99.90;;;;;;5051882;28;20037;-57
2022/07/08 06:38:19;;;;;;;13.15;2.60;;;16.30;99.90;;;;;;5053225;28;20049;-56
2022/07/08 06:40:45;;;;;;;8.77;2.10;;;16.40;99.90;;;;;;5068458;28;20408;-56
2022/07/08 06:43:11;;;;;;;12.75;2.35;;;16.30;99.90;;;;;;5052582;28;20401;-57
2022/07/08 06:45:37;;;;;;;7.13;2.17;;;16.50;99.90;;;;;;5052249;28;20414;-57
2022/07/08 06:48:03;;;;;;;13.80;2.83;;;16.70;99.90;;;;;;5052157;28;20044;-57
2022/07/08 06:50:29;;;;;;;9.10;2.90;;;17.00;99.90;;;;;;5052259;28;20251;-57
2022/07/08 06:52:55;;;;;;;10.55;2.05;;;16.90;99.90;;;;;;5052227;28;20037;-56
2022/07/08 06:55:22;;;;;;;11.98;2.35;;;17.00;99.90;;;;;;5051527;28;20052;-57
2022/07/08 06:57:48;;;;;;;9.70;2.90;;;16.90;99.90;;;;;;5052713;28;20041;-57
2022/07/08 07:00:14;;;;;;;8.02;1.88;;;16.90;99.90;;;;;;5052629;28;20055;-56
2022/07/08 07:02:40;;;;;;;12.98;3.03;;;16.90;99.90;;;;;;5052399;28;20041;-57
2022/07/08 07:05:07;;;;;;;11.70;2.78;;;16.80;99.90;;;;;;5052015;28;20437;-57
2022/07/08 07:07:33;;;;;;;11.93;2.45;;;16.90;99.90;;;;;;5052311;28;20049;-56
2022/07/08 07:09:58;;;;;;;15.70;2.90;;;17.10;99.90;;;;;;5052222;28;20071;-56
2022/07/08 07:12:24;;;;;;;10.98;2.40;;;17.20;99.90;;;;;;5052218;28;20043;-56
2022/07/08 07:14:51;;;;;;;11.77;3.05;;;17.10;99.90;;;;;;5052256;28;20354;-57
2022/07/08 07:17:18;;;;;;;10.55;2.50;;;17.20;99.90;;;;;;5052132;28;20112;-56
2022/07/08 07:19:44;;;;;;;10.32;2.28;;;17.20;99.90;;;;;;5052027;28;20354;-57
2022/07/08 07:22:10;;;;;;;11.82;2.70;;;17.20;99.90;;;;;;5051987;28;20048;-57
2022/07/08 07:24:36;;;;;;;14.27;2.95;;;17.20;99.90;;;;;;5051923;28;20044;-57
2022/07/08 07:27:02;;;;;;;9.68;2.50;;;17.40;99.90;;;;;;5051919;28;20033;-56
2022/07/08 07:29:28;;;;;;;8.55;2.03;;;17.40;99.90;;;;;;5052000;28;20040;-57
2022/07/08 07:31:54;;;;;;;10.30;2.65;;;17.40;99.90;;;;;;5052139;28;20059;-57
2022/07/08 07:34:19;;;;;;;7.65;2.22;;;17.40;99.90;;;;;;5050365;28;20041;-57
2022/07/08 07:36:45;;;;;;;10.25;2.58;;;17.50;99.90;;;;;;5051396;28;20044;-57
2022/07/08 07:39:11;;;;;;;11.50;2.67;;;17.50;99.90;;;;;;5051040;28;20049;-57
2022/07/08 07:41:37;;;;;;;11.10;2.85;;;17.50;99.90;;;;;;5066267;28;20052;-57
2022/07/08 07:44:04;;;;;;;13.43;3.38;;;17.50;99.90;;;;;;5051538;28;20480;-57
2022/07/08 07:46:29;;;;;;;10.52;2.40;;;17.60;99.90;;;;;;5049383;28;20040;-57
2022/07/08 07:48:55;;;;;;;9.63;2.42;;;17.50;99.90;;;;;;5050791;28;20036;-58
2022/07/08 07:51:21;;;;;;;10.48;2.30;;;17.50;99.90;;;;;;5051169;28;20044;-57
2022/07/08 07:53:47;;;;;;;7.43;2.38;;;17.50;99.90;;;;;;5033630;28;20053;-57
2022/07/08 07:56:13;;;;;;;13.75;2.40;;;17.50;99.90;;;;;;5033060;28;20090;-57
2022/07/08 07:58:39;;;;;;;11.43;2.22;;;17.60;99.90;;;;;;5033499;28;20041;-57
2022/07/08 08:01:05;;;;;;;7.85;1.92;;;17.50;99.90;;;;;;5033184;28;20045;-56
2022/07/08 08:03:31;;;;;;;13.38;2.80;;;17.60;99.90;;;;;;5050540;28;20110;-56
2022/07/08 08:05:57;;;;;;;9.13;1.95;;;17.60;99.90;;;;;;5051125;28;20037;-57
2022/07/08 08:08:24;;;;;;;16.15;2.60;;;17.70;99.90;;;;;;5033203;28;20036;-57
2022/07/08 08:10:51;;;;;;;6.75;1.92;;;17.70;99.90;;;;;;5032801;28;20131;-57
2022/07/08 08:13:17;;;;;;;11.40;2.30;;;17.70;99.90;;;;;;5050806;28;20040;-58
2022/07/08 08:15:42;;;;;;;10.88;1.98;;;17.80;99.90;;;;;;5047909;28;20118;-58
2022/07/08 08:18:08;;;;;;;10.68;2.20;;;17.80;99.90;;;;;;5054593;28;20155;-58
2022/07/08 08:20:33;;;;;;;9.55;2.22;;;17.70;99.90;;;;;;5042091;28;20059;-57
2022/07/08 08:22:59;;;;;;;7.65;1.80;;;17.80;99.90;;;;;;5050684;28;20033;-57
2022/07/08 08:25:25;;;;;;;8.88;1.83;;;17.70;99.90;;;;;;5049631;28;20033;-57
2022/07/08 08:27:51;;;;;;;8.57;2.50;;;17.80;99.90;;;;;;5050691;28;20476;-57
2022/07/08 08:30:17;;;;;;;7.22;2.03;;;18.00;99.90;;;;;;5050252;28;20214;-57
2022/07/08 08:32:43;;;;;;;7.60;2.50;;;18.00;99.90;;;;;;5049881;28;20145;-57
2022/07/08 08:35:09;;;;;;;10.40;2.42;;;18.00;99.90;;;;;;5049870;28;20532;-58
2022/07/08 08:37:35;;;;;;;9.05;3.22;;;18.00;99.90;;;;;;5050474;28;20072;-58
2022/07/08 08:40:04;;;;;;;10.65;2.95;;;18.00;99.90;;;;;;5050488;28;20076;-57
2022/07/08 08:42:31;;;;;;;10.48;2.30;;;17.90;99.90;;;;;;5047536;28;20029;-57
2022/07/08 08:45:02;;;;;;;11.43;2.60;;;18.10;99.90;;;;;;5050229;28;20037;-58
2022/07/08 08:47:29;;;;;;;8.82;1.90;;;18.10;99.90;;;;;;5050531;28;20045;-58
2022/07/08 08:49:56;;;;;;;6.82;2.00;;;18.10;99.90;;;;;;5033245;28;20410;-57
2022/07/08 08:52:26;;;;;;;9.10;2.10;;;18.20;99.90;;;;;;5050182;28;20041;-57
2022/07/08 08:54:53;;;;;;;9.70;2.10;;;18.20;99.90;;;;;;5048870;28;20553;-57
2022/07/08 08:57:20;;;;;;;9.68;2.30;;;18.20;99.90;;;;;;5049914;28;20068;-58
2022/07/08 08:59:46;;;;;;;15.07;2.30;;;18.40;99.90;;;;;;5049704;28;20048;-58
2022/07/08 09:02:12;;;;;;;8.77;1.90;;;18.40;99.90;;;;;;5050143;28;20044;-58
2022/07/08 09:04:38;;;;;;;7.97;2.05;;;18.50;99.90;;;;;;5049575;28;20596;-58
2022/07/08 09:07:05;;;;;;;6.18;1.70;;;18.50;99.90;;;;;;5031910;28;20485;-58
2022/07/08 09:09:31;;;;;;;10.63;1.90;;;18.50;99.90;;;;;;5050450;28;20429;-58
2022/07/08 09:11:57;;;;;;;11.60;2.15;;;18.50;99.90;;;;;;5049905;28;20134;-57
2022/07/08 09:14:23;;;;;;;12.02;2.20;;;18.60;99.90;;;;;;5050083;28;20135;-58
2022/07/08 09:17:09;;;;;;;12.20;2.40;;;18.60;99.90;;;;;;5031337;28;20037;-57
2022/07/08 09:19:36;;;;;;;8.50;2.05;;;18.60;99.90;;;;;;5033880;28;20111;-57
2022/07/08 09:22:02;;;;;;;14.30;2.58;;;18.70;99.90;;;;;;5044754;28;20041;-57
2022/07/08 09:24:28;;;;;;;8.15;1.70;;;18.60;99.90;;;;;;5055114;28;20663;-57
2022/07/08 09:26:55;;;;;;;10.23;2.00;;;18.50;99.90;;;;;;5053763;28;20044;-57
2022/07/08 09:29:21;;;;;;;9.43;2.03;;;18.50;99.90;;;;;;5055143;28;20041;-57
2022/07/08 09:31:47;;;;;;;10.07;2.22;;;18.40;99.90;;;;;;5054545;28;20037;-57
2022/07/08 09:34:16;;;;;;;8.02;1.98;;;18.60;99.90;;;;;;5054898;28;20055;-56
2022/07/08 09:36:49;;;;;;;7.03;2.38;;;18.60;99.90;;;;;;5054696;28;20098;-56
2022/07/08 09:39:27;;;;;;;5.88;1.85;;;18.60;99.90;;;;;;5054223;28;20041;-57
2022/07/08 09:41:54;;;;;;;8.73;2.10;;;18.70;99.90;;;;;;5054902;28;20049;-58
2022/07/08 09:44:23;;;;;;;8.48;2.17;;;18.70;99.90;;;;;;5054601;28;20041;-57
2022/07/08 09:46:49;;;;;;;10.15;3.05;;;18.80;99.90;;;;;;5036914;28;20059;-57
2022/07/08 09:49:28;;;;;;;6.55;2.17;;;18.90;99.90;;;;;;5054782;28;20064;-57
2022/07/08 09:51:56;;;;;;;10.13;1.80;;;19.10;99.90;;;;;;5036467;28;20056;-57
2022/07/08 09:54:21;;;;;;;9.05;1.90;;;19.10;99.90;;;;;;5054727;28;20397;-57
2022/07/08 09:57:01;;;;;;;7.40;2.15;;;18.90;99.90;;;;;;5054235;28;20048;-57
2022/07/08 09:59:31;;;;;;;9.98;2.08;;;19.20;99.90;;;;;;5054363;28;20507;-57
2022/07/08 10:01:57;;;;;;;10.07;2.20;;;19.10;99.90;;;;;;5054357;28;20052;-58
2022/07/08 10:04:24;;;;;;;8.85;3.55;;;19.30;99.90;;;;;;5053948;28;20053;-57
2022/07/08 10:06:51;;;;;;;7.43;2.45;;;19.30;99.90;;;;;;5036236;28;20061;-57
2022/07/08 10:09:18;;;;;;;11.05;2.40;;;19.20;99.90;;;;;;5053922;28;20032;-58
2022/07/08 10:11:44;;;;;;;10.55;2.20;;;19.30;99.90;;;;;;5053691;28;20744;-57
2022/07/08 10:14:10;;;;;;;12.45;2.40;;;19.30;99.90;;;;;;5053644;28;20558;-58
2022/07/08 10:16:38;;;;;;;7.97;2.25;;;19.30;99.90;;;;;;5053712;28;20108;-58
2022/07/08 10:19:08;;;;;;;8.82;2.38;;;19.40;99.90;;;;;;5053859;28;20029;-57
2022/07/08 10:21:36;;;;;;;11.30;2.78;;;19.40;99.90;;;;;;5043900;28;20053;-58
2022/07/08 10:24:05;;;;;;;9.05;2.63;;;19.50;99.90;;;;;;5052754;28;20047;-57
2022/07/08 10:26:38;;;;;;;8.82;1.90;;;19.50;99.90;;;;;;5052366;28;20120;-57
2022/07/08 10:29:06;;;;;;;11.00;2.60;;;19.40;99.90;;;;;;5053981;28;20051;-58
2022/07/08 10:31:46;;;;;;;8.50;2.45;;;19.40;99.90;;;;;;5052263;28;20048;-58
2022/07/08 10:34:20;;;;;;;9.98;2.30;;;19.60;99.90;;;;;;5053715;28;20036;-57
2022/07/08 10:36:53;;;;;;;7.57;1.95;;;19.50;99.90;;;;;;5053387;28;20048;-57
2022/07/08 10:39:26;;;;;;;8.52;2.50;;;19.50;99.90;;;;;;5018687;28;20069;-58
2022/07/08 10:42:01;;;;;;;8.82;2.30;;;19.70;99.90;;;;;;5051143;28;20033;-57
2022/07/08 10:44:45;;;;;;;11.13;2.45;;;19.50;99.90;;;;;;5052840;28;20044;-57
2022/07/08 10:47:12;;;;;;;7.07;2.17;;;19.90;99.90;;;;;;5051177;28;20036;-58
2022/07/08 10:49:45;;;;;;;7.85;2.20;;;20.00;99.90;;;;;;5052996;28;20069;-57
2022/07/08 10:52:11;;;;;;;9.35;2.03;;;20.10;99.90;;;;;;5049198;28;20070;-57
2022/07/08 10:54:37;;;;;;;8.35;2.70;;;20.20;99.90;;;;;;5052920;28;20037;-57
2022/07/08 10:57:22;;;;;;;6.57;2.28;;;20.40;99.90;;;;;;5053104;28;20029;-57
2022/07/08 11:00:07;;;;;;;9.02;2.58;;;20.20;99.90;;;;;;5050614;28;20362;-57
2022/07/08 11:02:39;;;;;;;10.32;2.40;;;20.10;99.90;;;;;;5051460;28;20068;-57
2022/07/08 11:05:05;;;;;;;5.97;1.95;;;20.20;99.90;;;;;;5053012;28;20061;-57
2022/07/08 11:07:31;;;;;;;9.02;2.72;;;20.50;99.90;;;;;;5053031;28;20041;-57
2022/07/08 11:10:09;;;;;;;8.60;2.50;;;20.70;99.90;;;;;;5052918;28;20033;-58
2022/07/08 11:12:37;;;;;;;9.25;2.22;;;20.50;99.90;;;;;;5053029;28;20390;-56
2022/07/08 11:15:10;;;;;;;10.00;2.78;;;20.60;99.90;;;;;;5035128;28;20040;-57
2022/07/08 11:17:38;;;;;;;7.43;2.22;;;20.70;99.90;;;;;;5053105;28;20052;-57
2022/07/08 11:20:09;;;;;;;8.43;2.40;;;20.60;99.90;;;;;;5052607;28;20052;-57
2022/07/08 11:22:37;;;;;;;10.20;2.67;;;21.00;99.90;;;;;;5052692;28;20044;-57
2022/07/08 11:25:04;;;;;;;7.25;2.55;;;20.80;99.90;;;;;;5051535;28;20405;-57
2022/07/08 11:27:31;;;;;;;11.98;3.25;;;20.90;99.90;;;;;;5052723;28;20131;-57
2022/07/08 11:29:57;;;;;;;9.43;2.80;;;20.90;99.90;;;;;;5052688;28;20424;-57
2022/07/08 11:32:25;;;;;;;8.82;2.65;;;20.90;99.90;;;;;;5067838;28;20120;-57
2022/07/08 11:34:52;;;;;;;8.88;3.20;;;21.00;99.90;;;;;;5051883;28;20526;-57
2022/07/08 11:37:18;;;;;;;9.90;2.75;;;21.00;99.90;;;;;;5052031;28;20392;-57
2022/07/08 11:39:44;;;;;;;14.23;3.22;;;21.00;99.90;;;;;;5051542;28;20040;-57
2022/07/08 11:42:12;;;;;;;9.98;3.40;;;21.00;99.90;;;;;;5050909;28;20404;-56
2022/07/08 11:44:38;;;;;;;7.93;3.00;;;20.90;99.90;;;;;;5051410;28;20389;-57
2022/07/08 11:47:04;;;;;;;8.77;3.05;;;20.90;99.90;;;;;;5050489;28;20151;-57
2022/07/08 11:49:31;;;;;;;8.85;2.83;;;21.10;99.90;;;;;;5032797;28;20053;-57
2022/07/08 11:51:58;;;;;;;8.90;3.28;;;20.90;99.90;;;;;;5048110;28;20036;-58
2022/07/08 11:54:26;;;;;;;8.27;3.22;;;21.00;99.90;;;;;;5050049;28;20045;-57
2022/07/08 11:56:53;;;;;;;13.48;3.38;;;21.30;99.90;;;;;;5050121;28;20040;-58
2022/07/08 11:59:23;;;;;;;12.32;3.38;;;21.50;99.90;;;;;;5040228;28;20041;-59
2022/07/08 12:01:51;;;;;;;10.63;3.42;;;21.80;99.90;;;;;;5036765;28;20125;-57
2022/07/08 12:04:17;;;;;;;9.93;3.53;;;21.40;99.90;;;;;;5013228;28;20498;-57
2022/07/08 12:07:06;;;;;;;10.55;2.97;;;21.30;99.90;;;;;;5031488;28;20084;-58
2022/07/08 12:09:32;;;;;;;10.20;3.30;;;21.40;99.90;;;;;;5029127;28;20053;-58
2022/07/08 12:12:05;;;;;;;9.65;3.00;;;21.30;99.90;;;;;;5012973;28;20056;-57
2022/07/08 12:14:33;;;;;;;11.68;3.38;;;21.60;99.90;;;;;;5021114;28;20454;-57
2022/07/08 12:16:58;;;;;;;12.50;3.20;;;21.40;99.90;;;;;;5041377;28;20025;-57
2022/07/08 12:19:28;;;;;;;12.23;3.50;;;21.50;99.90;;;;;;5049480;28;20540;-57
2022/07/08 12:21:55;;;;;;;12.00;3.58;;;21.60;99.90;;;;;;5049549;28;20051;-57
2022/07/08 12:24:40;;;;;;;9.73;2.80;;;21.60;99.90;;;;;;5050955;28;20486;-58
2022/07/08 12:27:09;;;;;;;9.55;2.80;;;21.50;99.90;;;;;;5050908;28;20065;-56
2022/07/08 12:29:37;;;;;;;11.15;3.40;;;21.40;99.90;;;;;;5050323;28;20456;-57
2022/07/08 12:32:07;;;;;;;10.75;2.85;;;21.60;99.90;;;;;;5050170;28;20041;-56
2022/07/08 12:34:33;;;;;;;10.10;3.15;;;21.40;99.90;;;;;;5022565;28;20448;-57
2022/07/08 12:37:15;;;;;;;10.95;3.20;;;21.40;99.90;;;;;;5050635;28;20594;-57
2022/07/08 12:39:41;;;;;;;9.68;3.45;;;21.80;99.90;;;;;;5049696;28;20045;-57
2022/07/08 12:42:07;;;;;;;9.18;2.90;;;21.70;99.90;;;;;;5050072;28;20033;-57